createdAt,value
2022-11-04T00:00:28.604Z,47.25
2022-11-04T00:03:00.869Z,47.32
2022-11-04T00:05:28.242Z,47.59
2022-11-04T00:08:13.998Z,47.88
2022-11-04T00:10:59.927Z,48.08
2022-11-04T00:13:30.243Z,48.58
2022-11-04T00:16:21.779Z,48.29
2022-11-04T00:18:52.057Z,48.58
2022-11-04T00:21:41.276Z,48.57
2022-11-04T00:24:29.633Z,48.87
2022-11-04T00:27:15.823Z,48.90
2022-11-04T00:29:43.352Z,49.07
2022-11-04T00:32:29.181Z,48.91
2022-11-04T00:35:02.568Z,49.37
2022-11-04T00:37:32.969Z,49.05
2022-11-04T00:40:02.351Z,49.17
2022-11-04T00:42:33.865Z,49.39
2022-11-04T00:45:09.820Z,49.49
2022-11-04T00:47:37.192Z,49.15
2022-11-04T00:50:10.131Z,49.29
2022-11-04T00:52:45.491Z,49.12
2022-11-04T00:55:16.552Z,49.33
2022-11-04T00:57:43.861Z,49.30
2022-11-04T01:00:16.993Z,49.36
2022-11-04T01:02:48.218Z,49.57
2022-11-04T01:05:16.029Z,49.53
2022-11-04T01:07:48.673Z,49.48
2022-11-04T01:10:18.298Z,49.57
2022-11-04T01:12:48.637Z,49.63
2022-11-04T01:15:18.463Z,49.42
2022-11-04T01:17:45.944Z,49.26
2022-11-04T01:20:20.932Z,49.54
2022-11-04T01:22:50.765Z,49.66
2022-11-04T01:25:21.047Z,49.85
2022-11-04T01:27:55.852Z,49.88
2022-11-04T01:30:24.132Z,49.57
2022-11-04T01:32:51.539Z,49.70
2022-11-04T01:35:25.141Z,49.75
2022-11-04T01:37:53.152Z,50.01
2022-11-04T01:40:23.147Z,49.38
2022-11-04T01:42:51.108Z,49.61
2022-11-04T01:45:24.387Z,49.66
2022-11-04T01:48:17.977Z,49.69
2022-11-04T01:50:45.963Z,49.51
2022-11-04T01:53:24.762Z,49.99
2022-11-04T01:56:04.389Z,49.72
2022-11-04T01:58:34.353Z,49.72
2022-11-04T02:01:04.289Z,49.55
2022-11-04T02:03:46.428Z,49.69
2022-11-04T02:06:20.064Z,49.77
2022-11-04T02:08:48.615Z,49.29
2022-11-04T02:11:40.405Z,49.14
2022-11-04T02:14:08.026Z,49.03
2022-11-04T02:16:44.327Z,48.85
2022-11-04T02:19:48.757Z,48.65
2022-11-04T02:22:55.662Z,48.54
2022-11-04T02:25:34.632Z,48.41
2022-11-04T02:28:39.390Z,48.22
2022-11-04T02:31:33.648Z,48.01
2022-11-04T02:34:07.147Z,47.88
2022-11-04T02:36:58.834Z,47.77
2022-11-04T02:40:09.923Z,47.78
2022-11-04T02:42:49.020Z,47.96
2022-11-04T02:45:22.032Z,47.79
2022-11-04T02:47:56.932Z,47.53
2022-11-04T02:50:41.475Z,47.48
2022-11-04T02:53:21.295Z,47.57
2022-11-04T02:55:53.678Z,47.55
2022-11-04T02:58:35.420Z,47.54
2022-11-04T03:01:09.349Z,47.35
2022-11-04T03:03:45.870Z,47.32
2022-11-04T03:06:19.435Z,47.63
2022-11-04T03:08:51.557Z,47.34
2022-11-04T03:11:25.499Z,47.50
2022-11-04T03:14:05.353Z,47.78
2022-11-04T03:16:59.652Z,47.91
2022-11-04T03:19:33.083Z,48.04
2022-11-04T03:22:21.148Z,48.38
2022-11-04T03:24:52.468Z,48.82
2022-11-04T03:27:32.518Z,48.80
2022-11-04T03:30:05.811Z,48.96
2022-11-04T03:32:39.038Z,49.01
2022-11-04T03:35:10.213Z,49.37
2022-11-04T03:37:40.472Z,49.30
2022-11-04T03:40:09.123Z,49.70
2022-11-04T03:42:46.454Z,49.33
2022-11-04T03:45:16.531Z,49.40
2022-11-04T03:47:46.179Z,49.41
2022-11-04T03:50:26.929Z,49.69
2022-11-04T03:52:59.965Z,49.61
2022-11-04T03:56:09.163Z,49.69
2022-11-04T03:59:04.648Z,49.65
2022-11-04T04:01:53.187Z,49.82
2022-11-04T04:04:31.075Z,49.56
2022-11-04T04:07:09.447Z,49.83
2022-11-04T04:09:58.115Z,50.06
2022-11-04T04:12:42.114Z,49.91
2022-11-04T04:15:22.064Z,49.80
2022-11-04T04:18:01.921Z,49.88
2022-11-04T04:20:32.677Z,49.97
2022-11-04T04:23:36.574Z,50.23
2022-11-04T04:26:28.512Z,50.28
2022-11-04T04:29:02.835Z,50.08
2022-11-04T04:31:52.523Z,49.86
2022-11-04T04:34:33.408Z,49.81
2022-11-04T04:37:10.884Z,49.85
2022-11-04T04:40:17.564Z,49.96
2022-11-04T04:43:08.905Z,50.00
2022-11-04T04:45:45.295Z,50.05
2022-11-04T04:48:20.305Z,49.88
2022-11-04T04:50:51.343Z,49.77
2022-11-04T04:53:18.790Z,50.02
2022-11-04T04:55:51.478Z,49.97
2022-11-04T04:58:21.696Z,49.87
2022-11-04T05:00:54.294Z,49.82
2022-11-04T05:03:26.207Z,49.99
2022-11-04T05:05:58.691Z,50.11
2022-11-04T05:08:35.247Z,50.02
2022-11-04T05:11:02.442Z,50.11
2022-11-04T05:13:34.573Z,50.10
2022-11-04T05:16:07.752Z,49.76
2022-11-04T05:18:35.341Z,50.18
2022-11-04T05:21:09.959Z,50.03
2022-11-04T05:23:40.034Z,50.11
2022-11-04T05:26:11.468Z,49.79
2022-11-04T05:28:44.600Z,50.03
2022-11-04T05:31:12.372Z,49.97
2022-11-04T05:33:39.827Z,49.99
2022-11-04T05:36:13.034Z,49.92
2022-11-04T05:39:03.271Z,49.88
2022-11-04T05:41:33.551Z,50.02
2022-11-04T05:44:02.624Z,50.10
2022-11-04T05:46:34.815Z,49.96
2022-11-04T05:49:06.809Z,49.77
2022-11-04T05:51:36.316Z,49.95
2022-11-04T05:54:09.688Z,50.00
2022-11-04T05:56:39.844Z,50.05
2022-11-04T05:59:13.101Z,50.06
2022-11-04T06:01:45.057Z,49.79
2022-11-04T06:04:19.242Z,49.81
2022-11-04T06:06:49.093Z,49.84
2022-11-04T06:09:22.545Z,49.96
2022-11-04T06:11:55.085Z,50.10
2022-11-04T06:14:28.421Z,49.83
2022-11-04T06:16:55.928Z,50.00
2022-11-04T06:19:31.162Z,49.82
2022-11-04T06:22:06.182Z,50.24
2022-11-04T06:24:33.490Z,49.96
2022-11-04T06:27:00.829Z,49.86
2022-11-04T06:29:28.690Z,50.12
2022-11-04T06:32:06.373Z,50.07
2022-11-04T06:34:33.701Z,50.32
2022-11-04T06:37:09.788Z,50.03
2022-11-04T06:39:48.420Z,50.26
2022-11-04T06:42:21.273Z,50.08
2022-11-04T06:44:54.526Z,50.43
2022-11-04T06:47:31.889Z,50.78
2022-11-04T06:50:07.544Z,50.69
2022-11-04T06:52:39.494Z,50.94
2022-11-04T06:55:10.117Z,50.96
2022-11-04T06:57:42.751Z,50.29
2022-11-04T07:00:15.362Z,50.02
2022-11-04T07:02:45.650Z,49.56
2022-11-04T07:05:14.925Z,49.49
2022-11-04T07:07:53.230Z,49.19
2022-11-04T07:10:23.545Z,48.77
2022-11-04T07:12:51.278Z,48.45
2022-11-04T07:15:27.259Z,48.12
2022-11-04T07:17:55.285Z,47.85
2022-11-04T07:20:28.447Z,47.75
2022-11-04T07:22:56.508Z,47.57
2022-11-04T07:25:25.384Z,47.44
2022-11-04T07:27:56.748Z,47.09
2022-11-04T07:30:29.519Z,47.41
2022-11-04T07:33:00.592Z,47.65
2022-11-04T07:35:28.457Z,47.44
2022-11-04T07:37:58.923Z,47.37
2022-11-04T07:40:39.594Z,47.30
2022-11-04T07:43:12.297Z,47.43
2022-11-04T07:45:46.470Z,47.88
2022-11-04T07:48:19.525Z,48.17
2022-11-04T07:50:50.702Z,48.62
2022-11-04T07:53:24.447Z,48.67
2022-11-04T07:55:52.718Z,48.80
2022-11-04T07:58:26.941Z,49.18
2022-11-04T08:01:10.480Z,49.08
2022-11-04T08:03:41.394Z,49.52
2022-11-04T08:06:21.431Z,49.21
2022-11-04T08:09:00.219Z,48.79
2022-11-04T08:11:40.139Z,48.58
2022-11-04T08:14:17.385Z,47.92
2022-11-04T08:16:57.446Z,48.20
2022-11-04T08:19:37.100Z,47.86
2022-11-04T08:22:16.468Z,47.63
2022-11-04T08:24:53.295Z,47.13
2022-11-04T08:27:37.047Z,46.86
2022-11-04T08:30:11.457Z,47.17
2022-11-04T08:32:55.833Z,47.33
2022-11-04T08:35:38.324Z,47.27
2022-11-04T08:38:25.393Z,47.34
2022-11-04T08:41:07.489Z,47.29
2022-11-04T08:43:44.700Z,47.14
2022-11-04T08:46:20.968Z,46.47
2022-11-04T08:49:01.080Z,46.14
2022-11-04T08:51:42.657Z,45.78
2022-11-04T08:54:14.901Z,46.27
2022-11-04T08:56:46.337Z,46.43
2022-11-04T08:59:30.378Z,45.84
2022-11-04T09:02:04.564Z,45.89
2022-11-04T09:04:38.875Z,45.72
2022-11-04T09:07:10.706Z,45.65
2022-11-04T09:09:43.393Z,44.67
2022-11-04T09:12:17.668Z,45.03
2022-11-04T09:14:45.568Z,45.38
2022-11-04T09:17:13.772Z,45.39
2022-11-04T09:19:50.058Z,45.49
2022-11-04T09:22:21.091Z,45.00
2022-11-04T09:24:56.072Z,44.36
2022-11-04T09:27:35.861Z,44.91
2022-11-04T09:30:09.730Z,45.15
2022-11-04T09:32:42.056Z,44.99
2022-11-04T09:35:19.377Z,44.59
2022-11-04T09:37:53.359Z,44.78
2022-11-04T09:40:24.333Z,44.36
2022-11-04T09:43:22.393Z,44.35
2022-11-04T09:45:50.829Z,44.25
2022-11-04T09:48:49.652Z,43.87
2022-11-04T09:51:48.368Z,43.26
2022-11-04T09:54:51.904Z,42.91
2022-11-04T09:57:26.441Z,42.90
2022-11-04T10:00:17.906Z,43.28
2022-11-04T10:02:54.921Z,42.70
2022-11-04T10:05:29.404Z,43.17
2022-11-04T10:08:07.678Z,43.45
2022-11-04T10:10:48.777Z,43.28
2022-11-04T10:13:26.710Z,43.30
2022-11-04T10:16:20.053Z,42.55
2022-11-04T10:19:10.982Z,41.99
2022-11-04T10:21:47.203Z,41.88
2022-11-04T10:24:31.975Z,41.90
2022-11-04T10:27:16.404Z,43.02
2022-11-04T10:30:01.794Z,42.74
2022-11-04T10:32:40.856Z,43.35
2022-11-04T10:35:32.484Z,43.55
2022-11-04T10:38:30.841Z,43.03
2022-11-04T10:41:07.062Z,43.24
2022-11-04T10:43:44.224Z,43.50
2022-11-04T10:46:38.302Z,43.41
2022-11-04T10:49:28.363Z,43.32
2022-11-04T10:52:00.393Z,43.08
2022-11-04T10:54:48.746Z,43.81
2022-11-04T10:57:28.470Z,43.69
2022-11-04T11:00:06.073Z,43.41
2022-11-04T11:02:42.436Z,42.83
2022-11-04T11:05:27.277Z,43.55
2022-11-04T11:07:58.259Z,43.65
2022-11-04T11:10:37.871Z,43.53
2022-11-04T11:13:27.584Z,43.02
2022-11-04T11:16:12.007Z,42.39
2022-11-04T11:19:03.409Z,41.51
2022-11-04T11:21:48.906Z,41.87
2022-11-04T11:24:25.488Z,41.46
2022-11-04T11:27:23.692Z,41.00
2022-11-04T11:29:56.481Z,41.22
2022-11-04T11:32:36.161Z,40.86
2022-11-04T11:35:18.789Z,40.72
2022-11-04T11:37:50.750Z,40.88
2022-11-04T11:40:47.468Z,41.32
2022-11-04T11:43:36.100Z,41.66
2022-11-04T11:46:14.366Z,42.09
2022-11-04T11:48:53.789Z,42.12
2022-11-04T11:51:39.194Z,41.85
2022-11-04T11:54:32.926Z,42.24
2022-11-04T11:57:25.561Z,42.86
2022-11-04T12:03:03.633Z,43.66
2022-11-04T12:11:49.300Z,45.19
2022-11-04T12:14:30.999Z,44.87
2022-11-04T12:17:37.630Z,45.20
2022-11-04T12:20:39.414Z,45.21
2022-11-04T12:23:18.212Z,45.21
2022-11-04T12:26:14.330Z,45.33
2022-11-04T12:28:59.502Z,45.10
2022-11-04T12:31:54.507Z,45.28
2022-11-04T12:34:45.496Z,45.34
2022-11-04T12:37:39.636Z,45.25
2022-11-04T12:40:28.152Z,45.21
2022-11-04T12:43:30.745Z,45.12
2022-11-04T12:46:49.305Z,45.03
2022-11-04T12:49:28.961Z,44.72
2022-11-04T12:52:12.562Z,44.94
2022-11-04T12:55:07.565Z,45.51
2022-11-04T12:57:48.408Z,44.96
2022-11-04T13:00:27.761Z,44.83
2022-11-04T13:03:14.942Z,44.79
2022-11-04T13:06:12.383Z,44.31
2022-11-04T13:08:54.857Z,43.99
2022-11-04T13:12:20.323Z,44.29
2022-11-04T13:15:10.928Z,44.41
2022-11-04T13:17:47.413Z,43.71
2022-11-04T13:20:39.992Z,43.36
2022-11-04T13:23:29.255Z,43.09
2022-11-04T13:26:03.502Z,42.81
2022-11-04T13:28:42.654Z,42.61
2022-11-04T13:31:30.810Z,42.51
2022-11-04T13:34:57.951Z,42.41
2022-11-04T13:37:40.444Z,41.86
2022-11-04T13:40:22.360Z,41.70
2022-11-04T13:43:47.164Z,41.29
2022-11-04T13:46:30.976Z,41.51
2022-11-04T13:49:14.813Z,41.30
2022-11-04T13:52:00.970Z,40.52
2022-11-04T13:54:35.859Z,40.15
2022-11-04T13:57:10.412Z,40.84
2022-11-04T13:59:44.425Z,40.98
2022-11-04T14:02:15.194Z,41.13
2022-11-04T14:04:52.427Z,41.90
2022-11-04T14:08:19.393Z,41.77
2022-11-04T14:10:53.108Z,42.03
2022-11-04T14:13:30.087Z,42.83
2022-11-04T14:16:25.732Z,43.13
2022-11-04T14:18:56.745Z,42.92
2022-11-04T14:21:32.985Z,43.69
2022-11-04T14:24:16.220Z,43.80
2022-11-04T14:26:54.386Z,44.16
2022-11-04T14:29:33.972Z,44.03
2022-11-04T14:32:15.024Z,44.14
2022-11-04T14:34:44.750Z,44.31
2022-11-04T14:37:23.402Z,44.53
2022-11-04T14:40:05.385Z,44.63
2022-11-04T14:42:57.262Z,44.62
2022-11-04T14:45:39.593Z,45.04
2022-11-04T14:48:19.546Z,45.20
2022-11-04T14:50:52.125Z,45.15
2022-11-04T14:53:37.987Z,44.94
2022-11-04T14:56:36.623Z,44.90
2022-11-04T14:59:10.724Z,45.45
2022-11-04T15:01:42.858Z,44.97
2022-11-04T15:04:32.584Z,45.52
2022-11-04T15:07:07.466Z,45.34
2022-11-04T15:09:44.143Z,45.13
2022-11-04T15:12:42.475Z,45.21
2022-11-04T15:15:27.365Z,45.21
2022-11-04T15:18:09.909Z,45.38
2022-11-04T15:20:56.357Z,45.25
2022-11-04T15:23:58.852Z,45.00
2022-11-04T15:26:34.288Z,44.76
2022-11-04T15:29:14.148Z,44.98
2022-11-04T15:31:59.314Z,44.30
2022-11-04T15:34:50.635Z,43.86
2022-11-04T15:37:29.042Z,43.34
2022-11-04T15:40:09.991Z,43.92
2022-11-04T15:42:47.074Z,41.09
2022-11-04T15:45:39.426Z,41.63
2022-11-04T15:48:38.239Z,42.10
2022-11-04T15:51:26.035Z,41.28
2022-11-04T15:54:29.819Z,40.96
2022-11-04T15:57:04.983Z,40.97
2022-11-04T15:59:38.462Z,40.95
2022-11-04T16:02:23.529Z,40.13
2022-11-04T16:05:14.643Z,40.97
2022-11-04T16:07:51.950Z,40.47
2022-11-04T16:10:32.629Z,41.08
2022-11-04T16:13:16.800Z,41.00
2022-11-04T16:16:28.293Z,41.41
2022-11-04T16:18:59.547Z,41.35
2022-11-04T16:21:34.935Z,41.61
2022-11-04T16:24:20.067Z,41.51
2022-11-04T16:26:55.557Z,41.42
2022-11-04T16:29:47.670Z,41.48
2022-11-04T16:32:48.954Z,41.09
